Schedule Details


Flight Number: CTN495
Departure: Gatwick (EGKK) at 16:25
Arrival: Kastela (LDSP) at 19:45
Route: DVR L10 RINTI UL10 LESDO UL15 BEGAR UQ341 RESIA T415 LISKO M730 TORPO

Weather Information
EGKK 100020Z 07006KT CAVOK 09/06 Q1025
LDSP 100030Z AUTO 02005KT 350V050 9999 FEW051/// 12/02 Q1020
Schedule Frequency

Route Map